createdAt,value
2017-08-18T00:00:08.509Z,18.47
2017-08-18T00:01:08.487Z,18.42
2017-08-18T00:02:08.464Z,18.53
2017-08-18T00:03:08.443Z,18.44
2017-08-18T00:04:08.431Z,18.56
2017-08-18T00:05:08.109Z,18.51
2017-08-18T00:06:08.388Z,18.53
2017-08-18T00:07:08.370Z,18.5
2017-08-18T00:08:08.343Z,18.56
2017-08-18T00:09:08.335Z,18.5
2017-08-18T00:10:08.310Z,18.56
2017-08-18T00:11:08.287Z,18.54
2017-08-18T00:12:07.966Z,18.56
2017-08-18T00:13:08.251Z,18.54
2017-08-18T00:14:08.233Z,18.6
2017-08-18T00:15:08.220Z,18.68
2017-08-18T00:16:08.187Z,18.69
2017-08-18T00:17:08.172Z,18.71
2017-08-18T00:18:08.145Z,18.62
2017-08-18T00:19:08.129Z,18.65
2017-08-18T00:20:08.115Z,18.62
2017-08-18T00:21:08.084Z,18.62
2017-08-18T00:22:08.064Z,18.71
2017-08-18T00:23:08.053Z,18.72
2017-08-18T00:24:08.027Z,18.66
2017-08-18T00:25:08.011Z,18.72
2017-08-18T00:26:07.989Z,18.64
2017-08-18T00:27:07.971Z,18.6
2017-08-18T00:28:07.945Z,18.66
2017-08-18T00:29:07.927Z,18.74
2017-08-18T00:30:07.929Z,18.6
2017-08-18T00:31:07.897Z,18.71
2017-08-18T00:32:07.870Z,18.59
2017-08-18T00:33:07.858Z,18.62
2017-08-18T00:34:07.835Z,18.65
2017-08-18T00:35:07.817Z,18.64
2017-08-18T00:36:07.789Z,18.56
2017-08-18T00:37:07.766Z,18.54
2017-08-18T00:38:07.750Z,18.64
2017-08-18T00:39:07.729Z,18.54
2017-08-18T00:40:07.720Z,18.54
2017-08-18T00:41:07.685Z,18.56
2017-08-18T00:42:07.670Z,18.53
2017-08-18T00:43:07.646Z,18.5
2017-08-18T00:44:07.638Z,18.53
2017-08-18T00:45:07.614Z,18.5
2017-08-18T00:46:07.592Z,18.57
2017-08-18T00:47:07.583Z,18.47
2017-08-18T00:48:07.560Z,18.47
2017-08-18T00:49:07.525Z,18.53
2017-08-18T00:50:07.568Z,18.46
2017-08-18T00:51:07.483Z,18.34
2017-08-18T00:52:07.173Z,18.46
2017-08-18T00:53:07.459Z,18.36
2017-08-18T00:54:07.433Z,18.34
2017-08-18T00:55:07.407Z,18.42
2017-08-18T00:56:07.093Z,18.38
2017-08-18T00:57:07.365Z,18.34
2017-08-18T00:58:07.351Z,18.35
2017-08-18T00:59:07.373Z,18.38
2017-08-18T01:00:07.311Z,18.35
2017-08-18T01:01:07.289Z,18.31
2017-08-18T01:02:06.977Z,18.32
2017-08-18T01:03:07.261Z,18.34
2017-08-18T01:04:07.228Z,18.34
2017-08-18T01:05:07.203Z,18.36
2017-08-18T01:06:07.185Z,18.34
2017-08-18T01:07:07.167Z,18.41
2017-08-18T01:08:06.840Z,18.34
2017-08-18T01:09:07.128Z,18.38
2017-08-18T01:10:07.107Z,18.36
2017-08-18T01:11:07.084Z,18.34
2017-08-18T01:12:07.080Z,18.41
2017-08-18T01:13:07.041Z,18.44
2017-08-18T01:14:07.027Z,18.39
2017-08-18T01:15:07.001Z,18.36
2017-08-18T01:16:06.984Z,18.39
2017-08-18T01:17:06.972Z,18.38
2017-08-18T01:18:06.946Z,18.38
2017-08-18T01:19:06.946Z,18.36
2017-08-18T01:20:06.921Z,18.51
2017-08-18T01:21:06.881Z,18.44
2017-08-18T01:22:06.863Z,18.51
2017-08-18T01:23:06.852Z,18.44
2017-08-18T01:24:06.819Z,18.49
2017-08-18T01:25:06.804Z,18.38
2017-08-18T01:26:06.780Z,18.44
2017-08-18T01:27:06.767Z,18.36
2017-08-18T01:28:06.743Z,18.34
2017-08-18T01:29:06.720Z,18.32
2017-08-18T01:30:06.711Z,18.32
2017-08-18T01:31:06.678Z,18.35
2017-08-18T01:32:06.671Z,18.35
2017-08-18T01:33:06.645Z,18.36
2017-08-18T01:34:06.620Z,18.31
2017-08-18T01:35:06.603Z,18.28
2017-08-18T01:36:06.278Z,18.21
2017-08-18T01:37:06.559Z,18.28
2017-08-18T01:38:06.538Z,18.25
2017-08-18T01:39:06.520Z,18.23
2017-08-18T01:40:06.507Z,18.2
2017-08-18T01:41:06.492Z,18.2
2017-08-18T01:42:06.465Z,18.19
2017-08-18T01:43:06.443Z,18.16
2017-08-18T01:44:06.422Z,18.17
2017-08-18T01:45:06.402Z,18.21
2017-08-18T01:46:06.410Z,18.17
2017-08-18T01:47:06.367Z,18.23
2017-08-18T01:48:06.339Z,18.23
2017-08-18T01:49:06.322Z,18.19
2017-08-18T01:50:06.295Z,18.16
2017-08-18T01:51:06.284Z,18.17
2017-08-18T01:52:06.262Z,18.16
2017-08-18T01:53:05.943Z,18.02
2017-08-18T01:54:06.251Z,18.07
2017-08-18T01:55:06.207Z,18.02
2017-08-18T01:56:06.177Z,18.04
2017-08-18T01:57:06.162Z,18.05
2017-08-18T01:58:05.835Z,17.98
2017-08-18T01:59:05.819Z,17.98
2017-08-18T02:00:06.095Z,17.98
2017-08-18T02:01:06.080Z,17.98
2017-08-18T02:02:06.061Z,17.96
2017-08-18T02:03:06.033Z,17.96
2017-08-18T02:04:06.024Z,17.99
2017-08-18T02:05:06.021Z,17.98
2017-08-18T02:06:05.973Z,17.92
2017-08-18T02:07:05.954Z,17.92
2017-08-18T02:08:05.939Z,17.91
2017-08-18T02:09:05.968Z,17.83
2017-08-18T02:10:05.889Z,17.89
2017-08-18T02:11:05.906Z,17.84
2017-08-18T02:12:05.864Z,17.83
2017-08-18T02:13:05.531Z,17.79
2017-08-18T02:14:05.827Z,17.76
2017-08-18T02:15:05.794Z,17.71
2017-08-18T02:16:05.773Z,17.74
2017-08-18T02:17:05.813Z,17.76
2017-08-18T02:18:05.733Z,17.71
2017-08-18T02:19:05.709Z,17.77
2017-08-18T02:20:05.697Z,17.73
2017-08-18T02:21:05.685Z,17.71
2017-08-18T02:22:05.660Z,17.74
2017-08-18T02:23:05.331Z,17.74
2017-08-18T02:24:05.305Z,17.71
2017-08-18T02:25:05.587Z,17.76
2017-08-18T02:26:05.577Z,17.66
2017-08-18T02:27:05.552Z,17.74
2017-08-18T02:28:05.538Z,17.66
2017-08-18T02:29:05.514Z,17.71
2017-08-18T02:30:05.495Z,17.65
2017-08-18T02:31:05.466Z,17.63
2017-08-18T02:32:05.454Z,17.66
2017-08-18T02:33:05.435Z,17.66
2017-08-18T02:34:05.412Z,17.62
2017-08-18T02:35:05.390Z,17.57
2017-08-18T02:36:05.369Z,17.57
2017-08-18T02:37:05.368Z,17.51
2017-08-18T02:38:05.335Z,17.51
2017-08-18T02:39:05.310Z,17.49
2017-08-18T02:40:05.294Z,17.49
2017-08-18T02:41:05.283Z,17.53
2017-08-18T02:42:05.251Z,17.53
2017-08-18T02:43:05.231Z,17.53
2017-08-18T02:44:05.209Z,17.53
2017-08-18T02:45:05.244Z,17.6
2017-08-18T02:46:04.877Z,17.53
2017-08-18T02:47:04.899Z,17.49
2017-08-18T02:48:05.128Z,17.51
2017-08-18T02:49:05.159Z,17.55
2017-08-18T02:50:05.098Z,17.46
2017-08-18T02:51:05.055Z,17.4
2017-08-18T02:52:05.037Z,17.47
2017-08-18T02:53:05.022Z,17.42
2017-08-18T02:54:04.994Z,17.4
2017-08-18T02:55:04.982Z,17.39
2017-08-18T02:56:04.959Z,17.4
2017-08-18T02:57:04.935Z,17.36
2017-08-18T02:58:04.916Z,17.39
2017-08-18T02:59:04.901Z,17.32
2017-08-18T03:00:04.876Z,17.32
2017-08-18T03:01:04.853Z,17.4
2017-08-18T03:02:04.890Z,17.38
2017-08-18T03:03:04.811Z,17.28
2017-08-18T03:04:04.811Z,17.32
2017-08-18T03:05:04.830Z,17.35
2017-08-18T03:06:04.752Z,17.33
2017-08-18T03:07:04.741Z,17.35
2017-08-18T03:08:04.718Z,17.33
2017-08-18T03:09:04.697Z,17.27
2017-08-18T03:10:04.672Z,17.3
2017-08-18T03:11:04.655Z,17.3
2017-08-18T03:12:04.331Z,17.38
2017-08-18T03:13:04.604Z,17.38
2017-08-18T03:14:04.591Z,17.35
2017-08-18T03:15:04.570Z,17.4
2017-08-18T03:16:04.547Z,17.35
2017-08-18T03:17:04.532Z,17.45
2017-08-18T03:18:04.508Z,17.39
2017-08-18T03:19:04.486Z,17.49
2017-08-18T03:20:04.471Z,17.38
2017-08-18T03:21:04.448Z,17.38
2017-08-18T03:22:04.427Z,17.32
2017-08-18T03:23:04.416Z,17.36
2017-08-18T03:24:04.438Z,17.42
2017-08-18T03:25:04.364Z,17.39
2017-08-18T03:26:04.348Z,17.46
2017-08-18T03:27:04.325Z,17.45
2017-08-18T03:28:04.305Z,17.49
2017-08-18T03:29:04.295Z,17.62
2017-08-18T03:30:04.276Z,17.6
2017-08-18T03:31:04.260Z,17.53
2017-08-18T03:32:04.217Z,17.58
2017-08-18T03:33:04.210Z,17.62
2017-08-18T03:34:04.182Z,17.62
2017-08-18T03:35:04.231Z,17.62
2017-08-18T03:36:04.144Z,17.58
2017-08-18T03:37:04.118Z,17.71
2017-08-18T03:38:04.102Z,17.66
2017-08-18T03:39:04.082Z,17.71
2017-08-18T03:40:04.061Z,17.71
2017-08-18T03:41:04.041Z,17.7
2017-08-18T03:42:04.023Z,17.74
2017-08-18T03:43:04.001Z,17.8
2017-08-18T03:44:03.679Z,17.81
2017-08-18T03:45:03.971Z,17.83
2017-08-18T03:46:03.996Z,17.81
2017-08-18T03:47:04.172Z,17.77
2017-08-18T03:48:03.891Z,17.8
2017-08-18T03:49:03.880Z,17.94
2017-08-18T03:50:03.857Z,17.95
2017-08-18T03:51:03.832Z,18.01
2017-08-18T03:52:03.820Z,17.95
2017-08-18T03:53:03.793Z,17.81
2017-08-18T03:54:03.772Z,17.86
2017-08-18T03:55:03.753Z,17.86
2017-08-18T03:56:03.740Z,17.94
2017-08-18T03:57:03.731Z,17.92
2017-08-18T03:58:03.694Z,17.94
2017-08-18T03:59:03.670Z,17.95
2017-08-18T04:00:03.653Z,17.86
2017-08-18T04:01:03.733Z,17.91
2017-08-18T04:02:03.614Z,17.94
2017-08-18T04:03:03.609Z,17.92
2017-08-18T04:04:03.573Z,17.99
2017-08-18T04:05:03.607Z,17.95
2017-08-18T04:06:03.529Z,17.95
2017-08-18T04:07:03.508Z,17.92
2017-08-18T04:08:03.488Z,17.94
2017-08-18T04:09:03.479Z,17.89
2017-08-18T04:10:03.459Z,17.94
2017-08-18T04:11:03.441Z,17.98
2017-08-18T04:12:03.408Z,17.94
2017-08-18T04:13:03.403Z,17.95
2017-08-18T04:14:03.385Z,17.94
2017-08-18T04:15:03.351Z,17.96
2017-08-18T04:16:03.326Z,17.89
2017-08-18T04:17:03.304Z,17.91
2017-08-18T04:18:03.337Z,17.91
2017-08-18T04:19:03.277Z,17.98
2017-08-18T04:20:03.245Z,17.98
2017-08-18T04:21:03.223Z,17.98
2017-08-18T04:22:03.213Z,17.98
2017-08-18T04:23:03.185Z,17.98
2017-08-18T04:24:03.187Z,17.98
2017-08-18T04:25:03.147Z,17.94
2017-08-18T04:26:03.121Z,17.89
2017-08-18T04:27:03.105Z,17.95
2017-08-18T04:28:03.087Z,17.94
2017-08-18T04:29:02.766Z,17.96
2017-08-18T04:30:03.050Z,18.02
2017-08-18T04:31:03.024Z,17.96
2017-08-18T04:32:03.013Z,17.95
2017-08-18T04:33:03.035Z,17.98
2017-08-18T04:34:02.961Z,18.11
2017-08-18T04:35:02.948Z,18.01
2017-08-18T04:36:02.919Z,17.96
2017-08-18T04:37:02.906Z,18.17
2017-08-18T04:38:02.893Z,18.07
2017-08-18T04:39:02.862Z,18.01
2017-08-18T04:40:02.844Z,18.1
2017-08-18T04:41:02.830Z,18.09
2017-08-18T04:42:02.800Z,18.13
2017-08-18T04:43:02.791Z,18.09
2017-08-18T04:44:02.769Z,18.05
2017-08-18T04:45:02.439Z,18.13
2017-08-18T04:46:02.717Z,18.07
2017-08-18T04:47:02.711Z,18.1
2017-08-18T04:48:02.676Z,18.16
2017-08-18T04:49:02.666Z,18.13
2017-08-18T04:50:02.342Z,18.17
2017-08-18T04:51:02.347Z,18.13
2017-08-18T04:52:02.604Z,18.16
2017-08-18T04:53:02.583Z,18.16
2017-08-18T04:54:02.561Z,18.17
2017-08-18T04:55:02.544Z,18.2
2017-08-18T04:56:02.522Z,18.21
2017-08-18T04:57:02.556Z,18.26
2017-08-18T04:58:02.500Z,18.16
2017-08-18T04:59:02.524Z,18.25
2017-08-18T05:00:02.439Z,18.29
2017-08-18T05:01:02.425Z,18.31
2017-08-18T05:02:02.405Z,18.29
2017-08-18T05:03:02.380Z,18.28
2017-08-18T05:04:02.353Z,18.31
2017-08-18T05:05:02.349Z,18.2
2017-08-18T05:06:02.330Z,18.28
2017-08-18T05:07:02.303Z,18.28
2017-08-18T05:08:02.280Z,18.29
2017-08-18T05:09:01.965Z,18.32
2017-08-18T05:10:02.245Z,18.32
2017-08-18T05:11:01.921Z,18.36
2017-08-18T05:12:02.192Z,18.31
2017-08-18T05:13:02.238Z,18.31
2017-08-18T05:14:02.157Z,18.29
2017-08-18T05:15:02.136Z,18.26
2017-08-18T05:16:02.172Z,18.36
2017-08-18T05:17:02.101Z,18.25
2017-08-18T05:18:02.076Z,18.32
2017-08-18T05:19:02.063Z,18.34
2017-08-18T05:20:02.043Z,18.23
2017-08-18T05:21:02.025Z,18.28
2017-08-18T05:22:02.003Z,18.25
2017-08-18T05:23:01.710Z,18.28
2017-08-18T05:24:01.960Z,18.34
2017-08-18T05:25:01.937Z,18.32
2017-08-18T05:26:01.921Z,18.25
2017-08-18T05:27:01.905Z,18.29
2017-08-18T05:28:01.884Z,18.34
2017-08-18T05:29:01.868Z,18.36
2017-08-18T05:30:01.895Z,18.35
2017-08-18T05:31:01.821Z,18.36
2017-08-18T05:32:01.799Z,18.28
2017-08-18T05:33:01.783Z,18.47
2017-08-18T05:34:01.762Z,18.34
2017-08-18T05:35:01.739Z,18.35
2017-08-18T05:36:01.757Z,18.39
2017-08-18T05:37:01.704Z,18.35
2017-08-18T05:38:01.382Z,18.35
2017-08-18T05:39:01.713Z,18.38
2017-08-18T05:40:01.699Z,18.41
2017-08-18T05:41:01.630Z,18.41
2017-08-18T05:42:01.299Z,18.39
2017-08-18T05:43:01.582Z,18.38
2017-08-18T05:44:01.561Z,18.38
2017-08-18T05:45:01.543Z,18.42
2017-08-18T05:46:01.524Z,18.38
2017-08-18T05:47:01.554Z,18.49
2017-08-18T05:48:01.485Z,18.42
2017-08-18T05:49:01.556Z,18.49
2017-08-18T05:50:01.448Z,18.53
2017-08-18T05:51:01.424Z,18.53
2017-08-18T05:52:01.400Z,18.54
2017-08-18T05:53:01.445Z,18.54
2017-08-18T05:54:01.377Z,18.49
2017-08-18T05:55:01.341Z,18.47
2017-08-18T05:56:01.315Z,18.54
2017-08-18T05:57:01.299Z,18.53
2017-08-18T05:58:01.285Z,18.54
2017-08-18T05:59:00.952Z,18.53
2017-08-18T06:00:01.237Z,18.51
2017-08-18T06:01:01.220Z,18.47
2017-08-18T06:02:01.198Z,18.57
2017-08-18T06:03:01.187Z,18.47
2017-08-18T06:04:01.170Z,18.51
2017-08-18T06:05:01.143Z,18.51
2017-08-18T06:06:01.123Z,18.41
2017-08-18T06:07:01.101Z,18.36
2017-08-18T06:08:01.081Z,18.49
2017-08-18T06:09:01.065Z,18.5
2017-08-18T06:10:01.042Z,18.39
2017-08-18T06:11:01.023Z,18.44
2017-08-18T06:12:01.004Z,18.42
2017-08-18T06:13:00.992Z,18.53
2017-08-18T06:14:00.974Z,18.42
2017-08-18T06:15:00.942Z,18.49
2017-08-18T06:16:00.931Z,18.38
2017-08-18T06:17:01.115Z,18.49
2017-08-18T06:18:00.878Z,18.38
2017-08-18T06:19:00.867Z,18.34
2017-08-18T06:20:00.890Z,18.42
2017-08-18T06:21:00.825Z,18.34
2017-08-18T06:22:00.500Z,18.41
2017-08-18T06:23:00.782Z,18.39
2017-08-18T06:24:00.768Z,18.35
2017-08-18T06:25:00.751Z,18.34
2017-08-18T06:26:00.726Z,18.35
2017-08-18T06:27:00.714Z,18.35
2017-08-18T06:28:00.689Z,18.34
2017-08-18T06:29:00.657Z,18.35
2017-08-18T06:30:00.644Z,18.35
2017-08-18T06:31:00.622Z,18.25
2017-08-18T06:32:00.614Z,18.28
2017-08-18T06:33:00.583Z,18.28
2017-08-18T06:34:00.564Z,18.31
2017-08-18T06:35:00.543Z,18.19
2017-08-18T06:36:00.529Z,18.14
2017-08-18T06:37:00.505Z,18.09
2017-08-18T06:38:00.471Z,18.14
2017-08-18T06:39:00.522Z,18.1
2017-08-18T06:40:00.437Z,18.07
2017-08-18T06:41:00.421Z,18.1
2017-08-18T06:42:00.406Z,18.07
2017-08-18T06:43:00.380Z,18.1
2017-08-18T06:44:00.356Z,18.04
2017-08-18T06:45:00.334Z,18.04
2017-08-18T06:46:00.034Z,18.01
2017-08-18T06:47:00.313Z,18.09
2017-08-18T06:47:59.974Z,18.1
2017-08-18T06:49:00.264Z,17.99
2017-08-18T06:50:00.241Z,18.09
2017-08-18T06:51:00.218Z,17.98
2017-08-18T06:52:00.197Z,18.1
2017-08-18T06:53:00.173Z,18.04
2017-08-18T06:54:00.207Z,18.04
2017-08-18T06:55:00.144Z,18.04
2017-08-18T06:56:00.122Z,18.05
2017-08-18T06:57:00.093Z,17.99
2017-08-18T06:58:00.073Z,18.07
2017-08-18T06:58:59.753Z,18.1
2017-08-18T07:00:00.038Z,17.99
2017-08-18T07:01:00.017Z,18.09
2017-08-18T07:02:00.005Z,18.02
2017-08-18T07:02:59.975Z,18.04
2017-08-18T07:03:59.955Z,18.14
2017-08-18T07:04:59.936Z,18.14
2017-08-18T07:05:59.919Z,18.17
2017-08-18T07:06:59.901Z,18.13
2017-08-18T07:07:59.880Z,18.19
2017-08-18T07:08:59.855Z,18.19
2017-08-18T07:09:59.826Z,18.25
2017-08-18T07:10:59.813Z,18.29
2017-08-18T07:11:59.797Z,18.29
2017-08-18T07:12:59.782Z,18.31
2017-08-18T07:13:59.745Z,18.23
2017-08-18T07:15:00.032Z,18.25
2017-08-18T07:15:59.722Z,18.31
2017-08-18T07:16:59.693Z,18.34
2017-08-18T07:17:59.682Z,18.38
2017-08-18T07:18:59.651Z,18.46
2017-08-18T07:19:59.631Z,18.38
2017-08-18T07:20:59.618Z,18.41
2017-08-18T07:21:59.594Z,18.39
2017-08-18T07:22:59.580Z,18.36
2017-08-18T07:23:59.556Z,18.44
2017-08-18T07:24:59.532Z,18.46
2017-08-18T07:25:59.513Z,18.51
2017-08-18T07:26:59.493Z,18.51
2017-08-18T07:27:59.471Z,18.49
2017-08-18T07:28:59.469Z,18.54
2017-08-18T07:29:59.130Z,18.51
2017-08-18T07:30:59.420Z,18.56
2017-08-18T07:31:59.395Z,18.56
2017-08-18T07:32:59.373Z,18.56
2017-08-18T07:33:59.055Z,18.59
2017-08-18T07:34:59.334Z,18.62
2017-08-18T07:35:59.316Z,18.59
2017-08-18T07:36:59.297Z,18.64
2017-08-18T07:37:59.568Z,18.65
2017-08-18T07:38:59.267Z,18.69
2017-08-18T07:39:59.242Z,18.75
2017-08-18T07:40:59.220Z,18.83
2017-08-18T07:41:58.903Z,18.86
2017-08-18T07:42:59.178Z,18.9
2017-08-18T07:43:59.156Z,18.94
2017-08-18T07:44:58.842Z,18.91
2017-08-18T07:45:59.122Z,19.12
2017-08-18T07:46:59.102Z,19.09
2017-08-18T07:47:59.130Z,19.2
2017-08-18T07:48:59.060Z,19.27
2017-08-18T07:49:58.745Z,19.24
2017-08-18T07:50:59.023Z,19.28
2017-08-18T07:51:58.703Z,19.38
2017-08-18T07:52:58.978Z,19.49
2017-08-18T07:53:59.070Z,19.42
2017-08-18T07:54:58.954Z,19.46
2017-08-18T07:55:58.932Z,19.42
2017-08-18T07:56:58.905Z,19.43
2017-08-18T07:57:58.890Z,19.45
2017-08-18T07:58:58.624Z,19.42
2017-08-18T07:59:58.851Z,19.58
2017-08-18T08:00:58.827Z,19.64
2017-08-18T08:01:58.820Z,19.65
2017-08-18T08:02:58.791Z,19.68
2017-08-18T08:03:58.784Z,19.76
2017-08-18T08:04:58.773Z,19.61
2017-08-18T08:05:58.754Z,19.6
2017-08-18T08:06:58.734Z,19.57
2017-08-18T08:07:58.773Z,19.49
2017-08-18T08:08:58.680Z,19.38
2017-08-18T08:09:58.665Z,19.39
2017-08-18T08:10:58.646Z,19.34
2017-08-18T08:11:58.620Z,19.24
2017-08-18T08:12:58.605Z,19.27
2017-08-18T08:13:58.585Z,19.25
2017-08-18T08:14:58.562Z,19.28
2017-08-18T08:15:58.243Z,19.28
2017-08-18T08:16:58.534Z,19.25
2017-08-18T08:17:58.517Z,19.27
2017-08-18T08:18:58.490Z,19.28
2017-08-18T08:19:58.476Z,19.32
2017-08-18T08:20:58.445Z,19.27
2017-08-18T08:21:58.428Z,19.24
2017-08-18T08:22:58.415Z,19.3
2017-08-18T08:23:58.391Z,19.39
2017-08-18T08:24:58.420Z,19.38
2017-08-18T08:25:58.367Z,19.4
2017-08-18T08:26:58.383Z,19.46
2017-08-18T08:27:58.316Z,19.39
2017-08-18T08:28:58.303Z,19.45
2017-08-18T08:29:58.282Z,19.4
2017-08-18T08:30:58.308Z,19.43
2017-08-18T08:31:58.245Z,19.57
2017-08-18T08:32:57.914Z,19.57
2017-08-18T08:33:58.197Z,19.55
2017-08-18T08:34:58.180Z,19.68
2017-08-18T08:35:58.162Z,19.62
2017-08-18T08:36:58.144Z,19.64
2017-08-18T08:37:58.124Z,19.61
2017-08-18T08:38:58.099Z,19.58
2017-08-18T08:39:58.086Z,19.6
2017-08-18T08:40:58.063Z,19.57
2017-08-18T08:41:58.049Z,19.61
2017-08-18T08:42:57.728Z,19.64
2017-08-18T08:43:58.019Z,19.65
2017-08-18T08:44:58.001Z,19.76
2017-08-18T08:45:57.970Z,19.71
2017-08-18T08:46:57.961Z,19.68
2017-08-18T08:47:57.944Z,19.68
2017-08-18T08:48:57.923Z,19.78
2017-08-18T08:49:57.904Z,19.75
2017-08-18T08:50:57.876Z,19.78
2017-08-18T08:51:57.864Z,19.72
2017-08-18T08:52:57.839Z,19.7
2017-08-18T08:53:57.824Z,19.75
2017-08-18T08:54:57.804Z,19.83
2017-08-18T08:55:57.789Z,19.79
2017-08-18T08:56:57.778Z,19.86
2017-08-18T08:57:57.739Z,19.97
2017-08-18T08:58:57.723Z,19.95
2017-08-18T08:59:57.709Z,19.97
2017-08-18T09:00:57.741Z,20.02
2017-08-18T09:01:57.669Z,19.95
2017-08-18T09:02:57.649Z,20.15
2017-08-18T09:03:57.633Z,20.1
2017-08-18T09:04:57.609Z,20.19
2017-08-18T09:05:57.594Z,20.2
2017-08-18T09:06:57.593Z,20.44
2017-08-18T09:07:57.558Z,20.5
2017-08-18T09:08:57.567Z,20.64
2017-08-18T09:09:57.519Z,20.75
2017-08-18T09:10:57.200Z,20.87
2017-08-18T09:11:57.543Z,20.93
2017-08-18T09:12:57.719Z,21.01
2017-08-18T09:13:57.444Z,21.05
2017-08-18T09:14:57.429Z,21.03
2017-08-18T09:15:57.436Z,21.12
2017-08-18T09:16:57.396Z,21.16
2017-08-18T09:17:57.377Z,21.26
2017-08-18T09:18:57.408Z,21.24
2017-08-18T09:19:57.350Z,21.24
2017-08-18T09:20:57.324Z,21.3
2017-08-18T09:21:57.307Z,21.31
2017-08-18T09:22:57.285Z,21.4
2017-08-18T09:23:57.333Z,21.4
2017-08-18T09:24:57.260Z,21.34
2017-08-18T09:25:57.250Z,21.33
2017-08-18T09:26:57.217Z,21.33
2017-08-18T09:27:57.202Z,21.42
2017-08-18T09:28:57.180Z,21.37
2017-08-18T09:29:57.160Z,21.26
2017-08-18T09:30:57.145Z,21.22
2017-08-18T09:31:56.819Z,21.37
2017-08-18T09:32:57.111Z,21.42
2017-08-18T09:33:56.798Z,21.55
2017-08-18T09:34:57.087Z,21.55
2017-08-18T09:35:57.060Z,21.53
2017-08-18T09:36:57.045Z,21.51
2017-08-18T09:37:57.019Z,21.53
2017-08-18T09:38:56.710Z,21.66
2017-08-18T09:39:56.687Z,21.79
2017-08-18T09:40:56.973Z,21.73
2017-08-18T09:41:56.667Z,21.89
2017-08-18T09:42:56.637Z,21.81
2017-08-18T09:43:56.978Z,21.83
2017-08-18T09:44:56.603Z,21.94
2017-08-18T09:45:56.897Z,21.86
2017-08-18T09:46:56.598Z,21.74
2017-08-18T09:47:56.861Z,21.82
2017-08-18T09:48:56.836Z,21.67
2017-08-18T09:49:56.817Z,21.63
2017-08-18T09:50:56.856Z,21.49
2017-08-18T09:51:56.786Z,21.58
2017-08-18T09:52:57.016Z,21.56
2017-08-18T09:53:56.744Z,21.49
2017-08-18T09:54:56.722Z,21.59
2017-08-18T09:55:56.709Z,21.58
2017-08-18T09:56:56.692Z,21.51
2017-08-18T09:57:56.685Z,21.56
2017-08-18T09:58:56.666Z,21.53
2017-08-18T09:59:56.642Z,21.55
2017-08-18T10:00:56.838Z,21.49
2017-08-18T10:01:56.314Z,21.52
2017-08-18T10:02:56.595Z,21.46
2017-08-18T10:03:56.580Z,21.51
2017-08-18T10:04:56.557Z,21.53
2017-08-18T10:05:56.625Z,21.53
2017-08-18T10:06:56.516Z,21.38
2017-08-18T10:07:56.504Z,21.34
2017-08-18T10:08:56.485Z,21.27
2017-08-18T10:09:56.466Z,21.26
2017-08-18T10:10:56.153Z,21.28
2017-08-18T10:11:56.432Z,21.27
2017-08-18T10:12:56.412Z,21.31
2017-08-18T10:13:56.398Z,21.26
2017-08-18T10:14:56.382Z,21.31
2017-08-18T10:15:56.055Z,21.43
2017-08-18T10:16:56.353Z,21.48
2017-08-18T10:17:56.326Z,21.4
2017-08-18T10:18:56.007Z,21.4
2017-08-18T10:19:56.291Z,21.37
2017-08-18T10:20:56.330Z,21.36
2017-08-18T10:21:55.954Z,21.33
2017-08-18T10:22:55.927Z,21.3
2017-08-18T10:23:56.222Z,21.26
2017-08-18T10:24:56.198Z,21.28
2017-08-18T10:25:56.189Z,21.26
2017-08-18T10:26:56.158Z,21.28
2017-08-18T10:27:56.147Z,21.27
2017-08-18T10:28:56.142Z,21.24
2017-08-18T10:29:56.103Z,21.31
2017-08-18T10:30:56.096Z,21.4
2017-08-18T10:31:56.074Z,21.38
2017-08-18T10:32:56.066Z,21.43
2017-08-18T10:33:56.043Z,21.4
2017-08-18T10:34:56.020Z,21.36
2017-08-18T10:35:56.019Z,21.42
2017-08-18T10:36:55.994Z,21.58
2017-08-18T10:37:55.965Z,21.58
2017-08-18T10:38:55.945Z,21.68
2017-08-18T10:39:55.930Z,21.66
2017-08-18T10:40:55.923Z,21.63
2017-08-18T10:41:55.902Z,21.64
2017-08-18T10:42:55.881Z,21.68
2017-08-18T10:43:55.855Z,21.63
2017-08-18T10:44:55.837Z,21.61
2017-08-18T10:45:55.827Z,21.63
2017-08-18T10:46:55.804Z,21.63
2017-08-18T10:47:55.792Z,21.56
2017-08-18T10:48:55.470Z,21.48
2017-08-18T10:49:55.750Z,21.55
2017-08-18T10:50:55.728Z,21.52
2017-08-18T10:51:55.712Z,21.52
2017-08-18T10:52:55.701Z,21.56
2017-08-18T10:53:55.679Z,21.49
2017-08-18T10:54:55.666Z,21.53
2017-08-18T10:55:55.649Z,21.4
2017-08-18T10:56:55.619Z,21.45
2017-08-18T10:57:55.603Z,21.42
2017-08-18T10:58:55.595Z,21.42
2017-08-18T10:59:55.573Z,21.43
2017-08-18T11:00:55.555Z,21.19
2017-08-18T11:01:55.531Z,21.26
2017-08-18T11:02:55.519Z,21.26
2017-08-18T11:03:55.497Z,21.28
2017-08-18T11:04:55.491Z,21.3
2017-08-18T11:05:55.468Z,21.21
2017-08-18T11:06:55.447Z,21.28
2017-08-18T11:07:55.454Z,21.28
2017-08-18T11:08:55.399Z,21.27
2017-08-18T11:09:55.386Z,21.27
2017-08-18T11:10:55.371Z,21.3
2017-08-18T11:11:55.346Z,21.3
2017-08-18T11:12:55.336Z,21.22
2017-08-18T11:13:55.313Z,21.34
2017-08-18T11:14:55.344Z,21.27
2017-08-18T11:15:55.282Z,21.24
2017-08-18T11:16:55.267Z,21.26
2017-08-18T11:17:55.294Z,21.11
2017-08-18T11:18:55.221Z,21.22
2017-08-18T11:19:55.230Z,21.26
2017-08-18T11:20:55.184Z,21.24
2017-08-18T11:21:55.166Z,21.18
2017-08-18T11:22:55.145Z,21.27
2017-08-18T11:23:55.135Z,21.24
2017-08-18T11:24:55.116Z,21.24
2017-08-18T11:25:55.117Z,21.3
2017-08-18T11:26:55.079Z,21.3
2017-08-18T11:27:54.758Z,21.26
2017-08-18T11:28:55.038Z,21.13
2017-08-18T11:29:55.019Z,21.27
2017-08-18T11:30:55.016Z,21.27
2017-08-18T11:31:54.989Z,21.27
2017-08-18T11:32:54.961Z,21.28
2017-08-18T11:33:54.349Z,21.28
2017-08-18T11:34:54.937Z,21.22
2017-08-18T11:35:54.954Z,21.21
2017-08-18T11:36:54.586Z,21.28
2017-08-18T11:37:54.870Z,21.27
2017-08-18T11:38:54.857Z,21.3
2017-08-18T11:39:54.831Z,21.31
2017-08-18T11:40:54.816Z,21.31
2017-08-18T11:41:54.797Z,21.37
2017-08-18T11:42:54.776Z,21.37
2017-08-18T11:43:54.163Z,21.4
2017-08-18T11:44:54.440Z,21.36
2017-08-18T11:45:54.721Z,21.45
2017-08-18T11:46:54.706Z,21.43
2017-08-18T11:47:54.689Z,21.38
2017-08-18T11:48:54.371Z,21.45
2017-08-18T11:49:54.658Z,21.48
2017-08-18T11:50:54.691Z,21.53
2017-08-18T11:51:54.727Z,21.56
2017-08-18T11:52:54.596Z,21.53
2017-08-18T11:53:54.286Z,21.52
2017-08-18T11:54:54.568Z,21.48
2017-08-18T11:55:54.545Z,21.55
2017-08-18T11:56:54.527Z,21.52
2017-08-18T11:57:54.507Z,21.51
2017-08-18T11:58:54.491Z,21.4
2017-08-18T11:59:54.475Z,21.4
2017-08-18T12:00:54.452Z,21.48
2017-08-18T12:01:54.479Z,21.52
2017-08-18T12:02:54.412Z,21.58
2017-08-18T12:03:54.403Z,21.58
2017-08-18T12:04:54.431Z,21.58
2017-08-18T12:05:54.364Z,21.53
2017-08-18T12:06:54.343Z,21.56
2017-08-18T12:07:54.334Z,21.59
2017-08-18T12:08:54.312Z,21.58
2017-08-18T12:09:53.998Z,21.59
2017-08-18T12:10:54.278Z,21.64
2017-08-18T12:11:54.261Z,21.71
2017-08-18T12:12:54.280Z,21.68
2017-08-18T12:13:54.217Z,21.67
2017-08-18T12:14:54.201Z,21.63
2017-08-18T12:15:54.184Z,21.67
2017-08-18T12:16:54.167Z,21.75
2017-08-18T12:17:54.154Z,21.83
2017-08-18T12:18:54.124Z,21.83
2017-08-18T12:19:54.117Z,21.81
2017-08-18T12:20:54.094Z,21.98
2017-08-18T12:21:54.074Z,21.98
2017-08-18T12:22:54.066Z,21.9
2017-08-18T12:23:54.040Z,21.85
2017-08-18T12:24:54.317Z,21.82
2017-08-18T12:25:54.064Z,21.86
2017-08-18T12:26:53.989Z,21.82
2017-08-18T12:27:53.969Z,21.74
2017-08-18T12:28:53.943Z,21.73
2017-08-18T12:29:53.928Z,21.74
2017-08-18T12:30:53.914Z,21.75
2017-08-18T12:31:53.897Z,21.83
2017-08-18T12:32:53.929Z,21.75
2017-08-18T12:33:53.856Z,21.73
2017-08-18T12:34:53.561Z,21.7
2017-08-18T12:35:53.830Z,21.59
2017-08-18T12:36:53.809Z,21.55
2017-08-18T12:37:53.533Z,21.56
2017-08-18T12:38:53.765Z,21.53
2017-08-18T12:39:53.752Z,21.48
2017-08-18T12:40:53.728Z,21.37
2017-08-18T12:41:53.408Z,21.31
2017-08-18T12:42:53.688Z,21.31
2017-08-18T12:43:53.379Z,21.28
2017-08-18T12:44:53.667Z,21.22
2017-08-18T12:45:53.652Z,21.22
2017-08-18T12:46:53.646Z,21.15
2017-08-18T12:47:53.603Z,21.15
2017-08-18T12:48:53.594Z,21.12
2017-08-18T12:49:53.568Z,21.06
2017-08-18T12:50:53.548Z,21.09
2017-08-18T12:51:53.584Z,20.96
2017-08-18T12:52:53.563Z,20.98
2017-08-18T12:53:53.494Z,20.81